createdAt,value
2023-05-03T00:02:10.821Z,10.65
2023-05-03T00:04:41.532Z,10.20
2023-05-03T00:07:08.929Z,10.50
2023-05-03T00:09:36.204Z,10.23
2023-05-03T00:12:05.824Z,9.43
2023-05-03T00:14:33.146Z,9.73
2023-05-03T00:17:00.420Z,10.50
2023-05-03T00:19:31.905Z,10.05
2023-05-03T00:21:59.577Z,10.38
2023-05-03T00:24:26.862Z,10.30
2023-05-03T00:26:54.102Z,10.60
2023-05-03T00:29:22.821Z,10.80
2023-05-03T00:31:49.982Z,10.05
2023-05-03T00:34:17.206Z,10.25
2023-05-03T00:36:49.147Z,10.23
2023-05-03T00:39:16.360Z,10.05
2023-05-03T00:41:46.073Z,10.32
2023-05-03T00:44:13.261Z,6.83
2023-05-03T00:46:41.194Z,10.15
2023-05-03T00:49:11.749Z,10.65
2023-05-03T00:51:39.547Z,12.18
2023-05-03T00:54:10.156Z,11.15
2023-05-03T00:59:15.708Z,11.60
2023-05-03T01:01:42.781Z,11.02
2023-05-03T01:04:10.301Z,11.23
2023-05-03T01:06:45.371Z,11.73
2023-05-03T01:09:37.396Z,11.45
2023-05-03T01:12:09.949Z,11.32
2023-05-03T01:14:50.595Z,11.40
2023-05-03T01:17:18.303Z,10.25
2023-05-03T01:19:47.272Z,10.50
2023-05-03T01:22:36.169Z,11.18
2023-05-03T01:25:09.160Z,10.55
2023-05-03T01:27:39.464Z,11.60
2023-05-03T01:30:07.421Z,10.10
2023-05-03T01:32:53.396Z,11.27
2023-05-03T01:35:26.449Z,10.40
2023-05-03T01:37:54.832Z,10.35
2023-05-03T01:40:23.539Z,10.77
2023-05-03T01:43:03.115Z,10.23
2023-05-03T01:45:30.467Z,11.43
2023-05-03T01:47:57.801Z,10.60
2023-05-03T01:50:25.028Z,10.55
2023-05-03T01:52:53.253Z,10.98
2023-05-03T01:55:20.280Z,10.55
2023-05-03T02:00:24.859Z,10.32
2023-05-03T02:02:52.117Z,10.43
2023-05-03T02:05:19.366Z,10.95
2023-05-03T02:07:46.568Z,12.65
2023-05-03T02:10:14.996Z,10.10
2023-05-03T02:12:43.215Z,10.55
2023-05-03T02:15:13.230Z,10.48
2023-05-03T02:17:41.057Z,11.48
2023-05-03T02:20:11.607Z,10.45
2023-05-03T02:22:38.809Z,11.70
2023-05-03T02:25:06.923Z,11.85
2023-05-03T02:27:34.128Z,11.05
2023-05-03T02:30:04.602Z,11.95
2023-05-03T02:34:59.528Z,11.98
2023-05-03T02:37:29.466Z,10.48
2023-05-03T02:40:02.626Z,10.02
2023-05-03T02:42:32.408Z,10.68
2023-05-03T02:44:59.657Z,11.70
2023-05-03T02:47:27.160Z,10.93
2023-05-03T02:49:54.397Z,12.07
2023-05-03T02:52:21.736Z,11.25
2023-05-03T02:54:49.726Z,11.02
2023-05-03T02:57:16.968Z,10.70
2023-05-03T02:59:45.962Z,11.45
2023-05-03T03:02:13.115Z,12.75
2023-05-03T03:04:43.098Z,12.98
2023-05-03T03:07:16.058Z,11.95
2023-05-03T03:09:44.803Z,12.10
2023-05-03T03:12:12.074Z,12.23
2023-05-03T03:14:42.883Z,11.55
2023-05-03T03:17:10.144Z,10.80
2023-05-03T03:19:37.329Z,13.18
2023-05-03T03:22:04.440Z,11.60
2023-05-03T03:24:34.062Z,12.60
2023-05-03T03:27:01.561Z,12.98
2023-05-03T03:29:30.997Z,10.95
2023-05-03T03:31:58.648Z,12.20
2023-05-03T03:34:26.116Z,13.25
2023-05-03T03:36:53.363Z,11.77
2023-05-03T03:39:20.801Z,12.20
2023-05-03T03:41:51.045Z,14.38
2023-05-03T03:44:18.191Z,13.80
2023-05-03T03:46:48.572Z,14.70
2023-05-03T03:49:15.879Z,13.10
2023-05-03T03:51:43.242Z,12.35
2023-05-03T03:54:13.252Z,13.45
2023-05-03T03:56:40.482Z,13.35
2023-05-03T03:59:10.206Z,12.32
2023-05-03T04:01:37.436Z,14.07
2023-05-03T04:04:05.328Z,12.95
2023-05-03T04:06:33.357Z,14.35
2023-05-03T04:09:01.039Z,13.32
2023-05-03T04:11:28.279Z,13.70
2023-05-03T04:13:55.434Z,13.82
2023-05-03T04:16:22.695Z,13.88
2023-05-03T04:18:52.905Z,12.27
2023-05-03T04:21:20.045Z,13.82
2023-05-03T04:23:48.355Z,13.27
2023-05-03T04:26:30.097Z,14.68
2023-05-03T04:28:58.328Z,13.80
2023-05-03T04:31:25.866Z,15.00
2023-05-03T04:33:53.228Z,15.15
2023-05-03T04:36:22.935Z,14.45
2023-05-03T04:38:50.119Z,15.65
2023-05-03T04:41:19.980Z,14.82
2023-05-03T04:43:47.574Z,14.77
2023-05-03T04:46:14.972Z,15.52
2023-05-03T04:48:44.788Z,16.48
2023-05-03T04:51:14.938Z,17.33
2023-05-03T04:53:44.440Z,16.67
2023-05-03T04:56:12.170Z,16.35
2023-05-03T04:58:39.379Z,15.93
2023-05-03T05:01:07.219Z,17.27
2023-05-03T05:03:39.369Z,17.75
2023-05-03T05:06:15.334Z,16.73
2023-05-03T05:08:42.632Z,16.83
2023-05-03T05:11:22.641Z,16.50
2023-05-03T05:13:49.884Z,17.92
2023-05-03T05:16:17.754Z,16.25
2023-05-03T05:18:46.954Z,16.58
2023-05-03T05:21:16.138Z,17.20
2023-05-03T05:23:45.599Z,14.90
2023-05-03T05:26:13.065Z,16.70
2023-05-03T05:28:41.164Z,16.90
2023-05-03T05:31:08.319Z,16.95
2023-05-03T05:33:38.917Z,15.63
2023-05-03T05:36:06.374Z,17.42
2023-05-03T05:38:36.036Z,16.60
2023-05-03T05:41:05.993Z,16.98
2023-05-03T05:43:35.109Z,14.75
2023-05-03T05:46:02.464Z,15.85
2023-05-03T05:48:29.675Z,15.57
2023-05-03T05:51:00.196Z,15.32
2023-05-03T05:53:29.986Z,15.30
2023-05-03T05:55:59.616Z,16.93
2023-05-03T05:58:26.823Z,15.55
2023-05-03T06:01:08.953Z,17.73
2023-05-03T06:03:39.267Z,15.18
2023-05-03T06:06:19.009Z,16.40
2023-05-03T06:08:50.165Z,14.98
2023-05-03T06:11:27.631Z,15.52
2023-05-03T06:14:01.023Z,14.82
2023-05-03T06:16:34.889Z,13.90
2023-05-03T06:19:15.183Z,16.35
2023-05-03T06:21:43.542Z,14.00
2023-05-03T06:24:10.572Z,14.80
2023-05-03T06:26:37.672Z,15.82
2023-05-03T06:29:04.703Z,12.68
2023-05-03T06:31:32.108Z,13.60
2023-05-03T06:33:59.271Z,12.23
2023-05-03T06:36:27.799Z,12.40
2023-05-03T06:38:55.832Z,12.25
2023-05-03T06:41:22.868Z,12.57
2023-05-03T06:43:50.231Z,12.15
2023-05-03T06:46:19.590Z,12.90
2023-05-03T06:48:47.538Z,12.15
2023-05-03T06:51:16.968Z,13.07
2023-05-03T06:53:46.101Z,12.50
2023-05-03T06:56:13.154Z,10.80
2023-05-03T06:58:40.190Z,13.02
2023-05-03T07:01:07.238Z,12.20
2023-05-03T07:03:35.551Z,11.00
2023-05-03T07:06:03.993Z,11.15
2023-05-03T07:08:31.390Z,10.55
2023-05-03T07:10:58.687Z,10.77
2023-05-03T07:13:25.831Z,11.60
2023-05-03T07:15:52.951Z,10.00
2023-05-03T07:18:20.070Z,9.68
2023-05-03T07:20:47.271Z,10.02
2023-05-03T07:23:14.268Z,9.85
2023-05-03T07:25:41.427Z,9.48
2023-05-03T07:28:08.462Z,9.85
2023-05-03T07:30:35.463Z,8.77
2023-05-03T07:33:02.577Z,8.98
2023-05-03T07:35:30.516Z,8.55
2023-05-03T07:37:57.670Z,8.73
2023-05-03T07:40:24.889Z,8.38
2023-05-03T07:42:52.012Z,8.35
2023-05-03T07:45:19.863Z,8.70
2023-05-03T07:47:47.135Z,8.68
2023-05-03T07:50:14.437Z,10.27
2023-05-03T07:52:43.380Z,8.38
2023-05-03T07:55:10.693Z,7.63
2023-05-03T07:57:37.930Z,8.52
2023-05-03T08:00:06.243Z,8.70
2023-05-03T08:02:43.223Z,7.75
2023-05-03T08:05:13.872Z,8.25
2023-05-03T08:07:42.055Z,7.85
2023-05-03T08:10:09.438Z,8.18
2023-05-03T08:12:37.098Z,7.90
2023-05-03T08:15:06.928Z,7.60
2023-05-03T08:17:40.234Z,8.38
2023-05-03T08:20:08.362Z,7.78
2023-05-03T08:22:37.426Z,7.72
2023-05-03T08:25:05.092Z,7.50
2023-05-03T08:27:33.025Z,7.45
2023-05-03T08:30:03.913Z,7.88
2023-05-03T08:32:31.540Z,7.57
2023-05-03T08:34:58.706Z,7.80
2023-05-03T08:37:25.782Z,7.55
2023-05-03T08:39:53.076Z,7.43
2023-05-03T08:42:20.178Z,7.22
2023-05-03T08:44:48.441Z,6.60
2023-05-03T08:47:33.296Z,7.78
2023-05-03T08:50:01.126Z,6.90
2023-05-03T08:52:28.431Z,7.05
2023-05-03T08:54:55.611Z,6.72
2023-05-03T08:57:24.636Z,7.32
2023-05-03T08:59:54.279Z,7.78
2023-05-03T09:02:21.970Z,7.30
2023-05-03T09:04:49.142Z,6.68
2023-05-03T09:07:16.784Z,7.32
2023-05-03T09:09:46.342Z,6.93
2023-05-03T09:12:45.660Z,7.68
2023-05-03T09:15:22.048Z,6.18
2023-05-03T09:18:09.986Z,7.03
2023-05-03T09:20:38.478Z,7.15
2023-05-03T09:23:07.534Z,6.45
2023-05-03T09:25:43.109Z,5.38
2023-05-03T09:28:10.749Z,6.13
2023-05-03T09:30:38.281Z,5.78
2023-05-03T09:33:05.991Z,5.20
2023-05-03T09:35:33.980Z,6.13
2023-05-03T09:38:01.266Z,5.47
2023-05-03T09:40:29.366Z,4.88
2023-05-03T09:43:08.603Z,5.00
2023-05-03T09:45:39.280Z,4.65
2023-05-03T09:48:07.534Z,5.25
2023-05-03T09:50:36.535Z,5.35
2023-05-03T09:53:09.398Z,5.00
2023-05-03T09:55:37.815Z,5.00
2023-05-03T09:58:08.590Z,5.43
2023-05-03T10:00:39.348Z,5.03
2023-05-03T10:03:10.640Z,4.85
2023-05-03T10:05:46.946Z,5.15
2023-05-03T10:08:18.742Z,5.30
2023-05-03T10:10:46.810Z,5.85
2023-05-03T10:13:14.348Z,6.07
2023-05-03T10:15:43.012Z,5.60
2023-05-03T10:18:11.860Z,5.22
2023-05-03T10:20:51.740Z,5.07
2023-05-03T10:23:19.318Z,5.15
2023-05-03T10:26:05.481Z,4.82
2023-05-03T10:28:33.808Z,4.60
2023-05-03T10:31:01.206Z,4.15
2023-05-03T10:33:32.986Z,4.90
2023-05-03T10:36:01.357Z,5.20
2023-05-03T10:38:29.572Z,4.55
2023-05-03T10:40:59.570Z,5.72
2023-05-03T10:45:53.726Z,5.03
2023-05-03T10:48:22.605Z,4.43
2023-05-03T10:50:50.232Z,4.53
2023-05-03T10:53:35.382Z,4.53
2023-05-03T10:56:07.990Z,4.43
2023-05-03T10:58:45.291Z,3.83
2023-05-03T11:01:13.452Z,5.65
2023-05-03T11:03:53.712Z,4.15
2023-05-03T11:06:34.511Z,3.97
2023-05-03T11:09:02.629Z,3.47
2023-05-03T11:11:29.930Z,4.38
2023-05-03T11:14:00.340Z,4.28
2023-05-03T11:16:28.109Z,4.22
2023-05-03T11:18:55.620Z,3.80
2023-05-03T11:21:23.597Z,3.58
2023-05-03T11:23:53.651Z,3.63
2023-05-03T11:26:26.614Z,4.20
2023-05-03T11:28:59.303Z,3.83
2023-05-03T11:31:27.001Z,3.70
2023-05-03T11:33:54.189Z,4.00
2023-05-03T11:36:21.624Z,4.53
2023-05-03T11:38:49.096Z,3.72
2023-05-03T11:41:17.387Z,3.85
2023-05-03T11:43:45.562Z,3.65
2023-05-03T11:46:21.624Z,3.10
2023-05-03T11:48:49.103Z,4.18
2023-05-03T11:51:17.414Z,3.20
2023-05-03T11:53:47.513Z,3.55
2023-05-03T11:56:15.481Z,3.83
2023-05-03T12:01:23.986Z,3.58
2023-05-03T12:04:09.960Z,3.08
2023-05-03T12:06:38.306Z,2.90
2023-05-03T12:09:14.094Z,2.80
2023-05-03T12:11:44.100Z,2.03
2023-05-03T12:14:11.929Z,2.83
2023-05-03T12:19:28.203Z,2.75
2023-05-03T12:22:26.556Z,2.75
2023-05-03T12:24:54.220Z,2.47
2023-05-03T12:27:23.617Z,2.38
2023-05-03T12:29:52.200Z,2.67
2023-05-03T12:32:21.491Z,2.70
2023-05-03T12:34:51.918Z,3.65
2023-05-03T12:37:22.112Z,2.28
2023-05-03T12:39:58.442Z,2.17
2023-05-03T12:42:28.588Z,2.22
2023-05-03T12:44:59.559Z,2.58
2023-05-03T12:47:29.201Z,2.55
2023-05-03T12:49:59.539Z,2.55
2023-05-03T12:52:45.139Z,2.53
2023-05-03T12:55:17.947Z,2.33
2023-05-03T12:58:10.438Z,2.33
2023-05-03T13:00:37.235Z,2.28
2023-05-03T13:05:36.749Z,2.05
2023-05-03T13:32:54.189Z,1.77
2023-05-03T13:48:56.793Z,2.13
2023-05-03T13:51:25.797Z,3.38
2023-05-03T13:59:09.970Z,1.60
2023-05-03T14:01:38.807Z,1.90
2023-05-03T14:06:53.456Z,1.42
2023-05-03T14:09:21.329Z,1.88
2023-05-03T14:11:49.057Z,1.83
2023-05-03T14:14:16.450Z,1.45
2023-05-03T14:16:44.331Z,1.83
2023-05-03T14:21:51.568Z,1.80
2023-05-03T14:24:18.737Z,1.50
2023-05-03T14:26:46.249Z,1.30
2023-05-03T14:29:13.664Z,1.80
2023-05-03T14:31:41.070Z,2.15
2023-05-03T14:36:55.905Z,1.90
2023-05-03T14:39:23.560Z,1.40
2023-05-03T14:41:51.199Z,1.58
2023-05-03T14:44:18.433Z,1.50
2023-05-03T14:46:46.301Z,1.45
2023-05-03T14:49:14.665Z,1.92
2023-05-03T14:51:44.106Z,1.42
2023-05-03T14:54:12.217Z,1.23
2023-05-03T14:56:40.024Z,1.10
2023-05-03T14:59:07.315Z,1.88
2023-05-03T15:01:37.142Z,1.50
2023-05-03T15:04:07.717Z,1.45
2023-05-03T15:06:39.057Z,1.65
2023-05-03T15:09:08.507Z,1.10
2023-05-03T15:11:35.664Z,2.55
2023-05-03T15:14:02.797Z,1.42
2023-05-03T15:16:29.923Z,1.55
2023-05-03T15:21:45.629Z,1.55
2023-05-03T15:24:12.656Z,1.42
2023-05-03T15:26:39.979Z,1.00
2023-05-03T15:29:07.295Z,1.25
2023-05-03T15:31:36.402Z,1.80
2023-05-03T15:36:37.834Z,1.02
2023-05-03T15:41:38.807Z,1.33
2023-05-03T15:44:09.820Z,1.15
2023-05-03T15:46:40.691Z,1.60
2023-05-03T15:49:09.395Z,1.27
2023-05-03T15:51:37.139Z,1.60
2023-05-03T15:54:04.463Z,1.85
2023-05-03T15:56:34.132Z,1.33
2023-05-03T15:59:01.406Z,1.00
2023-05-03T16:01:31.324Z,1.10
2023-05-03T16:06:39.909Z,0.65
2023-05-03T16:09:11.336Z,1.13
2023-05-03T16:11:39.992Z,1.13
2023-05-03T16:14:11.341Z,1.30
2023-05-03T16:17:08.690Z,1.20
2023-05-03T16:19:37.713Z,0.82
2023-05-03T16:30:01.675Z,1.25
2023-05-03T16:32:30.081Z,1.30
2023-05-03T16:34:57.261Z,1.30
2023-05-03T16:37:26.315Z,0.90
2023-05-03T16:42:24.260Z,0.75
2023-05-03T16:44:53.786Z,1.08
2023-05-03T16:47:22.162Z,1.58
2023-05-03T16:49:49.259Z,1.20
2023-05-03T16:55:10.670Z,1.40
2023-05-03T17:00:23.780Z,0.90
2023-05-03T17:02:51.366Z,0.80
2023-05-03T17:05:20.238Z,0.88
2023-05-03T17:07:47.341Z,0.80
2023-05-03T17:10:14.481Z,1.55
2023-05-03T17:15:12.579Z,0.90
2023-05-03T17:17:40.337Z,1.10
2023-05-03T17:20:07.828Z,1.40
2023-05-03T17:22:36.086Z,1.30
2023-05-03T17:25:03.944Z,1.13
2023-05-03T17:30:12.514Z,1.27
2023-05-03T17:32:39.827Z,1.00
2023-05-03T17:35:07.654Z,1.55
2023-05-03T17:37:34.816Z,1.10
2023-05-03T17:40:02.102Z,0.98
2023-05-03T17:50:26.432Z,1.10
2023-05-03T17:52:55.801Z,1.30
2023-05-03T17:55:24.210Z,1.15
2023-05-03T17:57:51.380Z,1.73
2023-05-03T18:03:13.356Z,0.98
2023-05-03T18:05:40.660Z,2.03
2023-05-03T18:08:07.815Z,1.25
2023-05-03T18:10:34.821Z,1.58
2023-05-03T18:13:04.516Z,1.48
2023-05-03T18:18:02.766Z,1.40
2023-05-03T18:20:29.919Z,1.30
2023-05-03T18:22:57.076Z,1.20
2023-05-03T18:25:24.461Z,1.88
2023-05-03T18:27:52.092Z,1.85
2023-05-03T18:33:05.335Z,1.38
2023-05-03T18:35:33.552Z,1.20
2023-05-03T18:38:00.831Z,1.85
2023-05-03T18:40:30.013Z,1.60
2023-05-03T18:42:57.233Z,1.33
2023-05-03T18:45:27.479Z,1.45
2023-05-03T18:47:54.608Z,1.42
2023-05-03T18:50:22.743Z,1.50
2023-05-03T18:52:50.896Z,1.85
2023-05-03T18:55:18.076Z,1.55
2023-05-03T18:57:46.510Z,2.00
2023-05-03T19:02:59.198Z,2.20
2023-05-03T19:05:27.739Z,1.65
2023-05-03T19:07:56.258Z,2.50
2023-05-03T19:10:23.356Z,1.95
2023-05-03T19:12:52.710Z,2.35
2023-05-03T19:15:23.467Z,2.00
2023-05-03T19:17:50.565Z,1.35
2023-05-03T19:20:17.676Z,1.80
2023-05-03T19:22:44.894Z,2.53
2023-05-03T19:25:12.878Z,1.75
2023-05-03T19:27:40.627Z,1.92
2023-05-03T19:35:47.357Z,2.20
2023-05-03T19:38:15.006Z,2.15
2023-05-03T19:40:42.263Z,2.15
2023-05-03T19:43:09.353Z,2.60
2023-05-03T19:45:42.286Z,2.00
2023-05-03T19:48:16.925Z,2.92
2023-05-03T19:50:44.477Z,2.75
2023-05-03T19:53:12.002Z,2.10
2023-05-03T19:55:39.082Z,2.30
2023-05-03T19:58:07.262Z,2.45
2023-05-03T20:00:34.503Z,2.70
2023-05-03T20:05:45.052Z,2.15
2023-05-03T20:08:12.409Z,2.58
2023-05-03T20:10:39.563Z,2.10
2023-05-03T20:13:07.054Z,2.45
2023-05-03T20:15:34.890Z,2.00
2023-05-03T20:20:33.103Z,2.30
2023-05-03T20:23:01.467Z,1.40
2023-05-03T20:25:28.678Z,2.00
2023-05-03T20:27:55.946Z,2.25
2023-05-03T20:30:23.224Z,2.25
2023-05-03T20:35:29.141Z,2.50
2023-05-03T20:37:57.855Z,2.35
2023-05-03T20:43:05.311Z,2.35
2023-05-03T20:45:32.548Z,2.38
2023-05-03T20:50:39.715Z,2.85
2023-05-03T20:53:07.285Z,3.35
2023-05-03T20:55:35.631Z,2.75
2023-05-03T20:58:03.865Z,3.28
2023-05-03T21:00:34.054Z,3.00
2023-05-03T21:03:02.079Z,2.70
2023-05-03T21:05:32.751Z,3.40
2023-05-03T21:08:00.219Z,2.80
2023-05-03T21:10:27.480Z,2.90
2023-05-03T21:12:55.387Z,3.60
2023-05-03T21:15:22.860Z,3.08
2023-05-03T21:17:58.386Z,2.55
2023-05-03T21:20:25.974Z,3.50
2023-05-03T21:22:53.164Z,2.95
2023-05-03T21:25:21.807Z,2.40
2023-05-03T21:27:50.643Z,2.70
2023-05-03T21:30:19.350Z,2.20
2023-05-03T21:32:53.461Z,2.53
2023-05-03T21:35:22.224Z,2.42
2023-05-03T21:37:53.747Z,2.67
2023-05-03T21:40:23.348Z,2.05
2023-05-03T21:42:55.410Z,2.37
2023-05-03T21:45:23.625Z,2.17
2023-05-03T21:47:51.264Z,2.80
2023-05-03T21:50:18.764Z,1.95
2023-05-03T21:52:46.752Z,1.98
2023-05-03T21:55:14.166Z,1.80
2023-05-03T22:00:29.031Z,1.92
2023-05-03T22:02:56.262Z,2.53
2023-05-03T22:13:49.604Z,2.47
2023-05-03T22:16:26.101Z,3.60
2023-05-03T22:18:53.462Z,3.80
2023-05-03T22:21:20.796Z,3.10
2023-05-03T22:23:48.423Z,3.00
2023-05-03T22:26:15.589Z,3.60
2023-05-03T22:28:43.307Z,3.58
2023-05-03T22:31:13.757Z,3.40
2023-05-03T22:36:11.696Z,3.47
2023-05-03T22:38:41.289Z,3.42
2023-05-03T22:41:09.859Z,3.40
2023-05-03T22:43:38.909Z,3.28
2023-05-03T22:46:07.262Z,3.08
2023-05-03T22:48:38.315Z,2.90
2023-05-03T22:51:07.106Z,3.38
2023-05-03T22:53:37.464Z,3.00
2023-05-03T22:56:06.434Z,4.65
2023-05-03T22:58:38.211Z,3.13
2023-05-03T23:03:51.425Z,3.45
2023-05-03T23:06:18.890Z,3.28
2023-05-03T23:11:38.409Z,3.00
2023-05-03T23:14:07.801Z,3.45
2023-05-03T23:19:16.712Z,3.67
2023-05-03T23:21:48.236Z,3.55
2023-05-03T23:24:16.634Z,2.97
2023-05-03T23:26:44.299Z,3.45
2023-05-03T23:46:04.822Z,3.60
2023-05-03T23:48:33.928Z,4.70
2023-05-03T23:51:12.510Z,4.03
2023-05-03T23:53:41.141Z,4.35
2023-05-03T23:58:51.362Z,4.65
